Time;durP1;ratioP1;P1;durP2;ratioP2;P2;SDS_P1;SDS_P2;PMS_P1;PMS_P2;Temp;Humidity;BMP_temperature;BMP_pressure;BME280_temperature;BME280_humidity;BME280_pressure;Samples;Min_cycle;Max_cycle;Signal;HPM_P1;HPM_P2
2024/04/13 00:01:48;;;;;;;6.10;3.80;;;;;;;13.75;55.15;100080.83;103143;1294;548647;-79
2024/04/13 00:05:16;;;;;;;6.50;3.60;;;;;;;13.77;55.27;100081.92;103057;1295;544940;-80
2024/04/13 00:09:00;;;;;;;5.90;3.60;;;;;;;13.80;55.37;100076.27;103670;1292;544748;-80
2024/04/13 00:12:35;;;;;;;7.50;3.80;;;;;;;13.84;55.38;100082.81;103661;1296;544716;-79
2024/04/13 00:16:11;;;;;;;6.60;3.30;;;;;;;13.85;55.52;100078.86;103291;1295;544785;-78
2024/04/13 00:19:53;;;;;;;6.10;3.40;;;;;;;13.86;55.61;100080.27;103235;1294;544988;-78
2024/04/13 00:23:31;;;;;;;5.40;3.40;;;;;;;13.87;55.66;100077.52;103385;1294;544741;-78
2024/04/13 00:27:11;;;;;;;5.70;3.50;;;;;;;13.89;55.82;100084.13;103435;1297;544742;-78
2024/04/13 00:30:46;;;;;;;6.30;3.30;;;;;;;13.91;56.00;100081.52;103252;1294;544836;-78
2024/04/13 00:34:24;;;;;;;7.20;4.30;;;;;;;13.93;55.95;100079.66;103293;1294;544877;-79
2024/04/13 00:38:02;;;;;;;5.70;3.40;;;;;;;13.96;56.11;100079.16;103431;1295;544909;-78
2024/04/13 00:41:39;;;;;;;7.10;3.50;;;;;;;13.98;56.29;100081.88;103289;1295;544912;-76
2024/04/13 00:45:17;;;;;;;5.10;3.30;;;;;;;14.00;56.45;100080.17;103504;1293;544676;-76
2024/04/13 00:48:55;;;;;;;5.10;3.30;;;;;;;14.02;56.53;100080.77;103444;1293;545174;-76
2024/04/13 00:52:33;;;;;;;5.50;3.20;;;;;;;14.08;56.67;100081.03;103335;1295;545300;-77
2024/04/13 00:56:12;;;;;;;4.30;3.30;;;;;;;14.10;56.65;100079.16;103331;1295;545058;-77
2024/04/13 00:59:50;;;;;;;8.20;3.30;;;;;;;14.16;56.94;100081.34;103223;1306;545584;-77
2024/04/13 01:03:26;;;;;;;5.90;2.90;;;;;;;14.24;57.02;100081.63;103348;1295;545524;-76
2024/04/13 01:07:07;;;;;;;5.00;2.90;;;;;;;14.34;57.07;100083.58;103616;1296;549840;-76
2024/04/13 01:10:45;;;;;;;4.30;2.80;;;;;;;14.42;57.14;100078.71;103714;1292;544962;-83
2024/04/13 01:14:20;;;;;;;4.60;2.90;;;;;;;14.49;57.23;100074.77;103784;1292;546055;-82
2024/04/13 01:17:56;;;;;;;5.20;3.10;;;;;;;14.54;57.28;100071.84;103800;1293;544916;-82
2024/04/13 01:21:34;;;;;;;5.10;3.10;;;;;;;14.59;57.24;100073.75;103680;1292;545766;-82
2024/04/13 01:25:17;;;;;;;6.20;3.00;;;;;;;14.62;57.35;100071.64;104095;1292;545110;-83
2024/04/13 01:28:50;;;;;;;6.90;3.30;;;;;;;14.64;57.36;100069.17;103586;1292;545824;-78
2024/04/13 01:32:28;;;;;;;6.10;2.90;;;;;;;14.68;57.45;100074.84;103593;1293;545843;-83
2024/04/13 01:36:06;;;;;;;5.70;2.80;;;;;;;14.70;57.44;100074.91;103199;1299;545675;-80
2024/04/13 01:39:41;;;;;;;4.00;2.70;;;;;;;14.72;57.58;100074.05;104496;1288;546021;-80
2024/04/13 01:43:23;;;;;;;6.00;2.80;;;;;;;14.76;57.63;100074.23;103477;1294;545862;-80
2024/04/13 01:47:02;;;;;;;5.20;2.90;;;;;;;14.78;57.67;100068.05;103077;1295;545025;-79
2024/04/13 01:50:39;;;;;;;5.40;3.00;;;;;;;14.84;57.80;100069.70;103041;1296;545433;-79
2024/04/13 01:54:17;;;;;;;3.20;2.60;;;;;;;14.83;57.83;100068.52;103284;1295;544668;-77
2024/04/13 01:57:53;;;;;;;4.90;2.90;;;;;;;14.84;57.94;100069.15;103219;1296;544871;-76
2024/04/13 02:01:33;;;;;;;6.80;3.30;;;;;;;14.85;57.96;100069.77;103191;1298;545133;-77
2024/04/13 02:05:08;;;;;;;7.00;3.40;;;;;;;14.88;58.08;100067.71;103152;1296;544830;-76
2024/04/13 02:08:49;;;;;;;7.00;3.40;;;;;;;14.89;58.16;100066.92;103302;1301;545046;-82
2024/04/13 02:12:26;;;;;;;7.50;3.10;;;;;;;14.90;58.24;100059.77;103290;1301;545349;-82
2024/04/13 02:16:09;;;;;;;5.80;3.40;;;;;;;14.92;58.27;100061.96;103777;1296;544809;-81
2024/04/13 02:19:46;;;;;;;7.20;3.20;;;;;;;14.93;58.44;100069.20;103523;1296;545342;-81
2024/04/13 02:23:24;;;;;;;5.90;3.00;;;;;;;14.93;58.48;100071.65;103849;1294;545021;-85
2024/04/13 02:27:03;;;;;;;6.50;3.40;;;;;;;14.94;58.55;100072.15;104225;1291;545380;-85
2024/04/13 02:30:36;;;;;;;7.40;3.10;;;;;;;14.94;58.67;100071.11;103352;1297;545365;-81
2024/04/13 02:34:19;;;;;;;4.70;3.20;;;;;;;14.91;58.78;100067.87;103102;1295;544780;-81
2024/04/13 02:37:56;;;;;;;6.00;3.10;;;;;;;14.88;58.94;100068.59;103379;1294;544630;-81
2024/04/13 02:41:35;;;;;;;4.40;2.70;;;;;;;14.86;58.99;100060.36;103587;1299;545541;-81
2024/04/13 02:45:14;;;;;;;6.00;3.40;;;;;;;14.86;59.17;100061.45;103202;1300;544762;-80
2024/04/13 02:48:51;;;;;;;6.50;3.20;;;;;;;14.85;59.09;100068.20;103334;1292;545016;-80
2024/04/13 02:52:31;;;;;;;5.80;3.30;;;;;;;14.83;59.25;100067.64;103283;1293;545316;-81
2024/04/13 02:56:06;;;;;;;6.00;3.50;;;;;;;14.80;59.41;100060.86;103204;1295;544762;-80
2024/04/13 02:59:44;;;;;;;3.60;3.20;;;;;;;14.75;59.58;100061.34;103219;1296;545463;-80
2024/04/13 03:03:22;;;;;;;7.00;3.20;;;;;;;14.67;59.80;100061.41;103364;1292;545452;-80
2024/04/13 03:06:57;;;;;;;4.40;3.20;;;;;;;14.62;59.80;100065.77;103225;1302;545423;-81
2024/04/13 03:10:40;;;;;;;5.70;3.30;;;;;;;14.55;59.87;100061.20;103123;1295;546021;-77
2024/04/13 03:14:15;;;;;;;6.40;3.30;;;;;;;14.48;60.16;100059.25;103028;1294;545034;-77
2024/04/13 03:17:56;;;;;;;4.60;3.00;;;;;;;14.42;60.48;100060.98;102981;1298;545432;-78
2024/04/13 03:21:35;;;;;;;4.40;2.70;;;;;;;14.38;60.70;100057.00;103404;1292;545019;-76
2024/04/13 03:25:15;;;;;;;6.10;3.10;;;;;;;14.33;60.99;100058.48;103203;1306;544856;-77
2024/04/13 03:28:50;;;;;;;6.40;3.10;;;;;;;14.27;61.18;100064.48;103061;1294;544774;-77
2024/04/13 03:32:28;;;;;;;5.50;3.00;;;;;;;14.22;61.31;100065.83;103340;1295;544869;-80
2024/04/13 03:36:05;;;;;;;4.30;3.00;;;;;;;14.18;61.53;100061.27;103582;1295;544983;-77
2024/04/13 03:39:45;;;;;;;4.00;3.10;;;;;;;14.15;61.70;100066.52;103238;1295;544793;-77
2024/04/13 03:43:21;;;;;;;3.40;3.00;;;;;;;14.14;62.16;100060.75;103148;1299;544992;-75
2024/04/13 03:46:58;;;;;;;3.60;3.00;;;;;;;14.13;62.23;100063.63;103036;1294;544626;-75
2024/04/13 03:50:40;;;;;;;4.90;2.70;;;;;;;14.10;62.52;100064.46;102959;1305;545984;-76
2024/04/13 03:54:15;;;;;;;4.80;3.10;;;;;;;14.09;62.74;100064.19;103164;1308;544974;-76
2024/04/13 03:57:53;;;;;;;7.00;3.20;;;;;;;14.08;62.96;100058.75;103063;1295;546718;-77
2024/04/13 04:01:29;;;;;;;4.90;3.10;;;;;;;14.07;62.86;100060.55;103007;1296;544856;-77
2024/04/13 04:05:07;;;;;;;4.30;2.80;;;;;;;14.08;63.05;100063.90;103364;1293;545097;-76
2024/04/13 04:08:44;;;;;;;3.50;2.80;;;;;;;14.07;63.16;100073.46;103514;1290;545408;-75
2024/04/13 04:12:20;;;;;;;5.10;3.10;;;;;;;14.07;63.33;100070.65;103090;1296;545471;-78
2024/04/13 04:16:02;;;;;;;4.50;2.80;;;;;;;14.07;63.60;100069.05;103305;1291;544821;-79
2024/04/13 04:19:41;;;;;;;6.50;3.60;;;;;;;14.08;63.60;100071.98;102977;1294;545007;-76
2024/04/13 04:23:19;;;;;;;5.40;3.30;;;;;;;14.10;63.72;100064.67;103047;1295;545029;-76
2024/04/13 04:26:55;;;;;;;5.50;3.80;;;;;;;14.12;63.74;100065.80;103091;1308;544900;-75
2024/04/13 04:30:33;;;;;;;3.30;2.90;;;;;;;14.12;63.82;100061.01;103132;1293;545740;-75
2024/04/13 04:34:13;;;;;;;6.40;3.20;;;;;;;14.15;63.97;100057.52;103172;1292;545251;-76
2024/04/13 04:37:49;;;;;;;4.20;3.30;;;;;;;14.22;64.23;100057.84;103633;1291;544703;-75
2024/04/13 04:41:25;;;;;;;6.20;3.80;;;;;;;14.39;64.27;100056.41;103205;1296;544779;-79
2024/04/13 04:45:07;;;;;;;5.30;2.80;;;;;;;14.53;64.25;100059.58;103125;1300;545233;-77
2024/04/13 04:48:43;;;;;;;8.60;3.20;;;;;;;14.68;64.35;100053.95;103088;1296;544992;-79
2024/04/13 04:52:46;;;;;;;9.70;3.30;;;;;;;14.94;64.46;100056.58;103301;1295;552260;-81
2024/04/13 04:56:07;;;;;;;6.50;3.10;;;;;;;15.13;64.24;100059.75;103065;1298;545472;-78
2024/04/13 04:59:38;;;;;;;7.60;3.80;;;;;;;15.46;64.41;100055.35;103195;1293;545649;-78
2024/04/13 05:03:22;;;;;;;14.60;3.50;;;;;;;15.89;64.40;100056.14;102986;1295;545538;-77
2024/04/13 05:06:58;;;;;;;16.10;3.40;;;;;;;16.28;64.21;100048.97;103220;1292;544860;-77
2024/04/13 05:10:37;;;;;;;13.00;3.70;;;;;;;16.58;63.93;100052.64;103388;1295;545845;-78
2024/04/13 05:14:16;;;;;;;7.40;3.30;;;;;;;16.68;63.65;100053.41;103179;1294;545593;-77
2024/04/13 05:17:59;;;;;;;5.80;2.70;;;;;;;16.74;63.47;100051.80;103136;1295;544758;-76
2024/04/13 05:21:38;;;;;;;12.00;3.00;;;;;;;16.75;63.31;100055.98;103491;1294;544304;-77
2024/04/13 05:25:13;;;;;;;13.20;3.60;;;;;;;16.80;63.43;100051.23;104416;1293;545114;-84
2024/04/13 05:28:51;;;;;;;9.70;3.30;;;;;;;16.88;63.31;100055.13;105310;1295;544584;-84
2024/04/13 05:32:50;;;;;;;7.90;3.10;;;;;;;16.96;63.33;100054.10;106366;1289;545031;-84
2024/04/13 05:46:42;;;;;;;4.60;3.20;;;;;;;17.41;63.10;100053.83;106379;1288;554087;-87
2024/04/13 05:49:31;;;;;;;7.10;3.00;;;;;;;17.70;62.97;100056.67;104837;1292;545419;-78
2024/04/13 06:31:36;;;;;;;10.40;3.00;;;;;;;22.00;61.03;100055.83;107825;1266;554378;-82
2024/04/13 06:34:25;;;;;;;4.70;2.90;;;;;;;22.56;60.31;100058.93;104453;1292;545710;-82
2024/04/13 06:38:07;;;;;;;5.40;3.10;;;;;;;22.55;59.76;100052.25;104726;1293;546902;-83
2024/04/13 06:41:43;;;;;;;6.30;2.90;;;;;;;22.48;59.26;100051.04;104061;1296;544868;-81
2024/04/13 06:45:25;;;;;;;4.20;3.00;;;;;;;22.48;59.10;100048.17;103679;1293;545592;-82
2024/04/13 06:49:04;;;;;;;6.10;3.50;;;;;;;22.49;58.84;100047.22;103999;1292;544984;-83
2024/04/13 06:52:40;;;;;;;3.00;2.70;;;;;;;22.52;58.65;100048.77;103736;1295;544717;-81
2024/04/13 06:56:19;;;;;;;5.10;3.40;;;;;;;22.57;58.40;100048.84;104766;1292;545004;-79
2024/04/13 06:59:58;;;;;;;4.70;3.20;;;;;;;22.69;58.18;100048.10;104841;1291;545404;-81
2024/04/13 07:03:31;;;;;;;7.20;3.10;;;;;;;22.68;57.93;100044.23;103991;1298;544944;-80
2024/04/13 07:07:15;;;;;;;8.80;3.70;;;;;;;22.54;57.76;100046.92;103436;1306;545051;-78
2024/04/13 07:10:55;;;;;;;6.80;3.20;;;;;;;22.51;57.50;100046.86;103428;1295;545947;-82
2024/04/13 07:14:29;;;;;;;4.40;3.30;;;;;;;22.54;57.41;100050.39;103463;1293;545590;-82
2024/04/13 07:18:05;;;;;;;7.40;3.10;;;;;;;22.59;57.05;100043.13;103827;1295;544730;-80
2024/04/13 07:21:45;;;;;;;6.20;2.40;;;;;;;22.65;56.68;100039.90;103636;1295;544945;-80
2024/04/13 07:25:28;;;;;;;10.50;2.60;;;;;;;22.56;56.28;100038.02;103805;1291;545374;-78
2024/04/13 07:29:05;;;;;;;28.90;2.70;;;;;;;22.28;55.97;100030.42;103834;1292;545198;-81
2024/04/13 07:32:45;;;;;;;9.80;3.00;;;;;;;22.12;55.66;100035.95;104527;1289;545532;-82
2024/04/13 07:36:23;;;;;;;8.40;3.10;;;;;;;21.86;55.45;100035.69;105307;1293;545554;-93
2024/04/13 07:40:32;;;;;;;7.70;2.90;;;;;;;21.80;55.19;100035.11;106336;1288;549699;-93
2024/04/13 07:54:03;;;;;;;5.20;2.30;;;;;;;21.73;54.71;100029.13;104978;1285;554633;-84
2024/04/13 08:07:20;;;;;;;3.80;2.40;;;;;;;22.35;54.62;100032.23;104778;1291;553764;-82
2024/04/13 08:10:08;;;;;;;11.90;2.90;;;;;;;22.78;54.42;100037.45;104981;1289;544745;-85
2024/04/13 08:13:54;;;;;;;4.90;2.40;;;;;;;22.54;54.07;100041.74;105080;1293;545232;-85
2024/04/13 08:17:28;;;;;;;7.80;3.00;;;;;;;22.45;54.12;100041.83;104937;1294;545851;-86
2024/04/13 08:21:06;;;;;;;4.30;2.70;;;;;;;22.44;53.53;100034.44;104818;1296;544836;-84
2024/04/13 08:24:44;;;;;;;9.20;3.80;;;;;;;22.08;53.71;100040.80;105502;1293;545066;-84
2024/04/13 08:28:21;;;;;;;5.30;2.10;;;;;;;22.04;53.53;100041.84;104494;1295;544856;-85
2024/04/13 08:31:59;;;;;;;5.10;3.10;;;;;;;22.03;53.45;100046.26;104851;1293;545993;-85
2024/04/13 08:35:41;;;;;;;6.90;2.70;;;;;;;22.21;53.33;100050.54;104494;1296;545511;-85
2024/04/13 08:39:15;;;;;;;4.20;2.80;;;;;;;22.34;53.11;100051.76;104080;1292;544819;-84
2024/04/13 08:42:53;;;;;;;5.00;2.70;;;;;;;22.23;52.68;100039.83;105016;1292;544796;-87
2024/04/13 08:46:35;;;;;;;6.10;4.00;;;;;;;22.00;52.63;100039.45;105533;1289;545362;-87
2024/04/13 08:50:18;;;;;;;5.00;3.10;;;;;;;22.10;52.49;100027.70;105261;1293;545025;-86
2024/04/13 08:53:57;;;;;;;5.30;2.60;;;;;;;22.39;52.40;100034.00;104674;1295;544760;-87
2024/04/13 08:57:37;;;;;;;4.20;2.50;;;;;;;22.50;52.20;100034.26;105001;1292;544873;-86
2024/04/13 09:01:25;;;;;;;5.20;3.40;;;;;;;22.83;52.07;100042.39;104649;1295;545497;-86
2024/04/13 09:04:52;;;;;;;7.30;3.10;;;;;;;22.94;51.70;100053.23;105118;1296;545001;-85
2024/04/13 09:08:31;;;;;;;6.70;2.90;;;;;;;22.78;51.36;100034.73;105154;1293;546127;-85
2024/04/13 09:12:09;;;;;;;6.80;3.80;;;;;;;22.75;51.53;100030.54;104889;1295;546077;-83
2024/04/13 09:15:44;;;;;;;7.60;2.90;;;;;;;22.76;51.24;100024.74;104915;1294;544912;-83
2024/04/13 09:19:19;;;;;;;3.70;2.30;;;;;;;22.65;50.83;100006.69;104685;1299;544766;-86
2024/04/13 09:22:55;;;;;;;5.30;3.50;;;;;;;22.72;51.14;100011.64;105111;1291;545515;-85
2024/04/13 09:26:45;;;;;;;5.50;2.90;;;;;;;22.84;50.69;100018.05;105453;1293;545005;-86
2024/04/13 09:30:29;;;;;;;6.20;2.80;;;;;;;22.83;50.63;100015.88;105308;1295;545232;-86
2024/04/13 09:34:17;;;;;;;7.50;3.40;;;;;;;22.94;50.74;100001.91;105279;1294;544899;-86
2024/04/13 09:37:46;;;;;;;4.70;2.90;;;;;;;23.25;50.41;99998.20;105115;1293;544972;-86
2024/04/13 09:41:22;;;;;;;6.00;3.30;;;;;;;23.38;49.78;99981.40;106525;1285;545642;-87
2024/04/13 09:45:11;;;;;;;5.60;3.10;;;;;;;23.32;50.21;99977.82;106065;1298;544795;-86
2024/04/13 09:48:58;;;;;;;14.90;4.00;;;;;;;23.56;49.99;99983.55;106178;1286;545773;-87
2024/04/13 09:52:32;;;;;;;5.60;2.80;;;;;;;23.80;49.45;99975.55;105102;1295;545346;-85
2024/04/13 10:06:43;;;;;;;8.50;3.50;;;;;;;24.42;48.43;99966.40;105237;1286;554628;-83
2024/04/13 10:09:41;;;;;;;9.80;3.80;;;;;;;24.36;47.66;99970.66;103935;1303;549957;-84
2024/04/13 10:13:32;;;;;;;8.20;3.50;;;;;;;23.79;47.65;99987.20;103867;1297;546106;-78
2024/04/13 10:16:48;;;;;;;5.40;2.90;;;;;;;23.82;47.84;99969.23;103451;1292;545175;-77
2024/04/13 10:20:23;;;;;;;7.40;3.00;;;;;;;24.07;47.50;99967.81;103842;1292;545195;-79
2024/04/13 10:24:03;;;;;;;7.60;3.40;;;;;;;24.09;47.31;99963.21;103425;1301;545081;-77
2024/04/13 10:27:43;;;;;;;7.00;4.10;;;;;;;24.29;47.18;99960.17;103713;1295;544766;-79
2024/04/13 10:31:26;;;;;;;8.20;4.10;;;;;;;24.41;46.73;99964.36;104047;1292;545005;-80
2024/04/13 10:35:09;;;;;;;4.90;3.20;;;;;;;24.55;46.35;99953.45;103727;1292;545943;-78
2024/04/13 10:38:59;;;;;;;4.60;2.60;;;;;;;24.67;46.38;99952.52;103481;1295;545198;-85
2024/04/13 10:43:03;;;;;;;10.40;2.70;;;;;;;24.76;45.69;99947.46;103352;1298;550523;-77
2024/04/13 10:46:17;;;;;;;4.70;2.70;;;;;;;24.41;45.82;99931.29;103354;1295;546127;-76
2024/04/13 10:49:51;;;;;;;5.00;2.90;;;;;;;24.19;45.07;99926.57;103155;1294;544970;-77
2024/04/13 10:53:28;;;;;;;11.90;3.40;;;;;;;23.94;45.43;99929.59;103406;1296;545037;-80
2024/04/13 10:57:09;;;;;;;7.60;3.20;;;;;;;24.06;45.51;99932.91;103704;1292;546835;-74
2024/04/13 11:00:44;;;;;;;3.70;2.60;;;;;;;24.45;45.14;99917.81;103397;1299;544831;-75
2024/04/13 11:04:18;;;;;;;3.20;2.10;;;;;;;24.64;44.89;99919.51;103441;1295;544860;-75
2024/04/13 11:08:02;;;;;;;3.40;2.40;;;;;;;24.82;44.83;99927.98;103339;1294;545589;-77
2024/04/13 11:11:54;;;;;;;4.80;2.10;;;;;;;24.99;44.43;99929.85;103724;1295;550430;-79
2024/04/13 11:15:15;;;;;;;4.90;1.80;;;;;;;24.72;44.09;99919.75;103857;1295;545672;-79
2024/04/13 11:18:55;;;;;;;4.10;1.80;;;;;;;24.62;44.37;99918.67;103428;1295;545452;-79
2024/04/13 11:22:39;;;;;;;5.70;1.90;;;;;;;24.83;44.00;99915.95;103991;1289;545356;-79
2024/04/13 11:26:15;;;;;;;6.90;2.20;;;;;;;24.69;43.73;99909.30;103481;1298;545703;-78
2024/04/13 11:30:06;;;;;;;4.40;1.80;;;;;;;24.59;43.65;99900.23;103625;1292;548205;-79
2024/04/13 11:33:32;;;;;;;4.40;2.20;;;;;;;24.65;43.71;99899.85;103561;1298;545925;-79
2024/04/13 11:37:13;;;;;;;2.50;2.00;;;;;;;24.64;43.29;99900.79;103395;1295;545674;-78
2024/04/13 11:40:50;;;;;;;8.50;2.30;;;;;;;24.51;43.26;99884.97;103778;1308;545083;-79
2024/04/13 11:44:26;;;;;;;4.00;2.20;;;;;;;24.20;43.27;99887.44;103392;1296;545051;-77
2024/04/13 11:48:02;;;;;;;5.80;2.00;;;;;;;24.03;43.33;99881.42;103521;1296;544790;-77
2024/04/13 11:51:40;;;;;;;3.90;2.20;;;;;;;23.94;43.50;99880.67;103465;1292;545752;-79
2024/04/13 11:55:31;;;;;;;6.20;1.90;;;;;;;24.02;43.38;99876.64;103600;1292;546240;-78
2024/04/13 11:58:54;;;;;;;4.60;2.00;;;;;;;23.98;43.11;99868.27;104080;1296;544934;-78
2024/04/13 12:02:38;;;;;;;7.10;2.00;;;;;;;23.94;43.04;99856.94;103850;1293;544907;-78
2024/04/13 12:06:14;;;;;;;5.30;2.30;;;;;;;24.15;43.14;99843.07;103547;1296;544920;-78
2024/04/13 12:10:10;;;;;;;4.20;1.90;;;;;;;24.36;42.93;99832.51;103781;1289;562908;-77
2024/04/13 12:13:30;;;;;;;4.30;2.10;;;;;;;24.53;42.87;99821.84;103495;1293;545033;-77
2024/04/13 12:17:08;;;;;;;5.20;2.10;;;;;;;24.68;42.64;99819.40;103504;1295;545181;-83
2024/04/13 12:20:45;;;;;;;4.60;2.10;;;;;;;24.69;42.80;99826.91;104001;1298;545031;-79
2024/04/13 12:24:21;;;;;;;4.30;2.00;;;;;;;24.87;42.56;99818.73;103663;1295;544970;-80
2024/04/13 12:28:11;;;;;;;5.80;2.30;;;;;;;25.02;42.47;99825.86;104693;1295;544690;-80
2024/04/13 12:31:39;;;;;;;7.10;2.10;;;;;;;24.95;42.29;99822.59;104592;1298;545967;-80
2024/04/13 12:35:21;;;;;;;5.80;1.90;;;;;;;24.95;42.08;99815.23;104145;1292;545012;-80
2024/04/13 12:38:59;;;;;;;5.90;2.00;;;;;;;24.99;41.95;99810.17;103702;1292;546000;-79
2024/04/13 12:42:49;;;;;;;4.50;1.50;;;;;;;25.03;42.08;99806.81;103987;1293;547494;-81
2024/04/13 12:46:14;;;;;;;6.50;1.80;;;;;;;25.07;41.60;99795.44;103644;1292;545708;-79
2024/04/13 12:49:57;;;;;;;3.70;1.60;;;;;;;24.95;41.66;99800.70;103856;1296;549319;-80
2024/04/13 12:53:27;;;;;;;6.00;1.90;;;;;;;25.05;41.83;99793.38;103843;1292;545028;-80
2024/04/13 12:57:07;;;;;;;7.40;1.90;;;;;;;25.22;41.41;99784.60;103668;1297;545369;-79
2024/04/13 13:00:47;;;;;;;6.20;2.00;;;;;;;25.13;41.37;99787.16;103635;1292;545415;-79
2024/04/13 13:04:35;;;;;;;4.90;1.40;;;;;;;25.23;40.83;99775.09;103592;1295;548033;-79
2024/04/13 13:08:07;;;;;;;3.80;1.60;;;;;;;25.01;41.12;99775.05;103529;1296;545447;-78
2024/04/13 13:11:43;;;;;;;2.20;1.60;;;;;;;25.00;41.25;99783.98;103861;1292;545000;-78
2024/04/13 13:15:28;;;;;;;2.10;1.50;;;;;;;25.12;40.82;99763.77;103768;1292;546509;-79
2024/04/13 13:19:02;;;;;;;3.70;1.60;;;;;;;24.88;40.42;99774.80;103559;1294;545615;-79
2024/04/13 13:22:43;;;;;;;2.50;1.60;;;;;;;24.99;40.53;99767.27;103648;1292;546886;-78
2024/04/13 13:26:19;;;;;;;3.00;1.40;;;;;;;25.30;40.55;99762.50;103763;1309;545091;-79
2024/04/13 13:30:00;;;;;;;2.20;1.30;;;;;;;25.39;40.20;99759.17;103564;1295;545917;-81
2024/04/13 13:33:42;;;;;;;3.40;1.40;;;;;;;25.21;39.97;99755.31;103742;1293;544988;-79
2024/04/13 13:37:24;;;;;;;2.70;1.40;;;;;;;25.02;40.13;99757.27;103616;1299;549668;-79
2024/04/13 13:41:05;;;;;;;1.60;1.30;;;;;;;25.13;40.11;99744.46;103794;1293;549685;-80
2024/04/13 13:44:39;;;;;;;4.20;1.80;;;;;;;25.13;40.15;99737.38;104353;1289;547825;-81
2024/04/13 13:48:33;;;;;;;20.40;2.30;;;;;;;25.08;39.96;99740.17;103654;1295;550757;-79
2024/04/13 14:02:24;;;;;;;2.80;1.60;;;;;;;25.14;40.00;99730.70;104702;1288;559686;-83
2024/04/13 14:05:14;;;;;;;2.90;1.40;;;;;;;25.18;39.85;99725.18;103950;1295;545121;-82
2024/04/13 14:08:52;;;;;;;9.80;7.00;;;;;;;25.28;39.57;99723.67;104554;1291;545776;-83
2024/04/13 14:12:35;;;;;;;3.60;1.90;;;;;;;25.35;39.40;99710.79;105028;1292;545930;-82
2024/04/13 14:16:21;;;;;;;3.70;1.60;;;;;;;25.36;39.28;99702.93;104638;1291;545376;-82
2024/04/13 14:19:57;;;;;;;3.40;1.60;;;;;;;25.57;39.35;99702.12;104121;1295;545340;-82
2024/04/13 14:23:23;;;;;;;2.70;1.30;;;;;;;25.60;39.14;99697.47;104220;1292;545326;-82
2024/04/13 14:27:02;;;;;;;3.50;2.10;;;;;;;25.42;38.86;99696.89;104149;1293;545261;-83
2024/04/13 14:30:36;;;;;;;6.10;2.30;;;;;;;25.36;38.78;99695.59;104094;1299;545081;-81
2024/04/13 14:34:16;;;;;;;4.50;1.40;;;;;;;25.31;38.66;99691.27;103692;1296;545035;-82
2024/04/13 14:38:07;;;;;;;3.00;2.00;;;;;;;25.20;38.59;99692.08;104002;1295;545895;-80
2024/04/13 14:41:38;;;;;;;3.70;1.70;;;;;;;25.10;38.71;99689.70;103731;1297;544912;-77
2024/04/13 14:45:22;;;;;;;9.90;1.90;;;;;;;25.07;38.89;99693.19;103484;1296;546225;-83
2024/04/13 14:48:55;;;;;;;5.50;1.60;;;;;;;25.03;38.64;99692.16;104043;1295;545575;-81
2024/04/13 14:52:40;;;;;;;6.70;4.00;;;;;;;25.02;38.37;99691.75;103681;1292;545201;-77
2024/04/13 14:56:20;;;;;;;4.20;1.90;;;;;;;24.98;38.17;99688.94;103619;1292;545132;-78
2024/04/13 14:59:53;;;;;;;2.10;1.20;;;;;;;24.76;38.10;99689.11;103521;1295;545601;-78
2024/04/13 15:03:34;;;;;;;3.10;1.50;;;;;;;24.57;38.10;99690.46;103376;1296;545327;-78
2024/04/13 15:07:07;;;;;;;2.70;1.20;;;;;;;24.60;38.26;99685.69;103652;1293;545404;-76
2024/04/13 15:10:49;;;;;;;2.30;1.50;;;;;;;24.70;38.08;99689.02;103489;1295;544846;-75
2024/04/13 15:14:26;;;;;;;3.50;2.00;;;;;;;24.65;38.04;99687.84;104676;1292;544963;-81
2024/04/13 15:18:04;;;;;;;4.40;2.20;;;;;;;24.42;38.05;99680.71;104662;1296;545135;-79
2024/04/13 15:21:41;;;;;;;4.40;1.70;;;;;;;24.34;38.22;99683.45;103974;1293;545084;-80
2024/04/13 15:25:19;;;;;;;4.90;1.70;;;;;;;24.28;38.22;99678.36;103774;1298;545971;-88
2024/04/13 15:29:06;;;;;;;7.40;3.20;;;;;;;24.18;38.10;99675.05;103732;1298;549338;-79
2024/04/13 15:32:35;;;;;;;5.90;3.80;;;;;;;24.05;38.12;99666.98;103758;1297;544979;-77
2024/04/13 15:36:12;;;;;;;4.30;2.40;;;;;;;24.04;38.14;99666.52;103530;1295;544916;-78
2024/04/13 15:39:49;;;;;;;9.40;5.40;;;;;;;23.97;38.17;99661.16;103558;1293;545013;-78
2024/04/13 15:43:29;;;;;;;6.90;4.60;;;;;;;23.88;38.19;99664.80;103655;1299;544956;-77
2024/04/13 15:47:11;;;;;;;5.00;3.70;;;;;;;23.90;38.30;99663.49;103770;1292;544741;-76
2024/04/13 15:50:51;;;;;;;5.80;1.80;;;;;;;23.80;38.21;99664.84;104018;1291;545617;-76
2024/04/13 15:54:30;;;;;;;4.10;2.50;;;;;;;23.47;38.57;99668.48;103717;1298;544981;-79
2024/04/13 15:58:02;;;;;;;7.10;3.30;;;;;;;23.46;38.68;99663.86;103670;1298;544900;-79
2024/04/13 16:01:45;;;;;;;5.80;2.60;;;;;;;23.41;38.91;99659.69;103548;1292;545056;-79
2024/04/13 16:05:23;;;;;;;5.30;2.10;;;;;;;23.41;38.92;99657.59;103841;1294;545238;-84
2024/04/13 16:09:04;;;;;;;5.30;2.10;;;;;;;23.39;39.06;99658.44;103719;1292;545062;-81
2024/04/13 16:23:15;;;;;;;4.70;1.90;;;;;;;23.29;39.35;99658.44;104583;1288;557328;-83
2024/04/13 16:26:20;;;;;;;3.30;1.40;;;;;;;23.15;39.37;99656.54;104102;1292;545323;-81
2024/04/13 16:29:50;;;;;;;4.00;2.00;;;;;;;23.01;39.58;99651.92;104330;1291;549092;-82
2024/04/13 16:33:22;;;;;;;3.60;1.70;;;;;;;22.83;39.77;99640.71;104277;1301;545012;-84
2024/04/13 16:37:01;;;;;;;5.90;2.10;;;;;;;22.69;40.00;99639.23;104137;1296;545565;-79
2024/04/13 16:40:38;;;;;;;3.90;2.10;;;;;;;22.63;40.19;99635.83;103808;1299;544886;-80
2024/04/13 16:44:24;;;;;;;6.40;2.40;;;;;;;22.54;40.50;99638.80;103782;1295;545793;-79
2024/04/13 16:47:51;;;;;;;3.80;2.70;;;;;;;22.44;40.64;99632.63;103775;1292;544945;-80
2024/04/13 16:51:31;;;;;;;5.90;2.20;;;;;;;22.33;40.68;99627.59;104056;1291;544869;-77
2024/04/13 16:55:07;;;;;;;5.40;2.50;;;;;;;22.26;41.04;99624.45;103864;1295;545021;-82
2024/04/13 16:58:49;;;;;;;5.00;2.50;;;;;;;22.22;41.11;99619.66;103719;1294;544806;-80
2024/04/13 17:02:28;;;;;;;7.60;2.60;;;;;;;22.13;41.30;99615.33;103808;1295;544838;-82
2024/04/13 17:06:03;;;;;;;6.20;2.60;;;;;;;22.04;41.24;99615.43;103756;1295;544878;-78
2024/04/13 17:09:57;;;;;;;4.30;2.40;;;;;;;21.94;41.40;99609.73;103670;1296;546573;-84
2024/04/13 17:13:35;;;;;;;9.50;3.00;;;;;;;21.85;41.67;99613.79;104148;1296;544805;-78
2024/04/13 17:17:17;;;;;;;13.40;10.60;;;;;;;21.79;41.55;99616.52;103532;1296;549449;-80
2024/04/13 17:20:50;;;;;;;7.80;4.10;;;;;;;21.65;41.38;99614.16;103468;1294;545258;-79
2024/04/13 17:24:30;;;;;;;9.70;5.80;;;;;;;21.54;41.82;99613.93;103638;1294;546204;-80
2024/04/13 17:28:14;;;;;;;8.40;6.70;;;;;;;21.43;41.72;99619.38;103902;1291;545426;-80
2024/04/13 17:42:31;;;;;;;29.50;15.10;;;;;;;21.28;41.54;99621.46;106931;1269;554366;-81
2024/04/13 17:45:20;;;;;;;43.70;22.90;;;;;;;21.06;41.93;99624.14;103581;1296;544964;-84
2024/04/13 17:49:14;;;;;;;39.60;19.60;;;;;;;20.77;42.37;99624.58;103321;1294;545579;-81
2024/04/13 18:03:17;;;;;;;12.20;6.70;;;;;;;20.56;42.57;99618.20;104332;1289;554261;-80
2024/04/13 18:06:05;;;;;;;10.50;6.20;;;;;;;20.35;42.88;99612.83;103503;1295;544839;-80
2024/04/13 18:09:42;;;;;;;13.90;9.70;;;;;;;20.15;42.97;99614.69;103605;1292;545362;-79
2024/04/13 18:13:26;;;;;;;32.20;21.40;;;;;;;19.98;43.24;99616.02;104058;1288;545401;-79
2024/04/13 18:16:56;;;;;;;30.50;23.00;;;;;;;19.80;43.43;99614.77;103443;1298;546295;-79
2024/04/13 18:20:41;;;;;;;23.50;15.80;;;;;;;19.65;43.45;99616.08;103589;1295;544820;-80
2024/04/13 18:24:18;;;;;;;28.40;15.90;;;;;;;19.51;43.80;99616.89;103294;1298;545175;-80
2024/04/13 18:27:56;;;;;;;22.60;15.50;;;;;;;19.37;44.19;99611.45;103493;1300;545158;-79
2024/04/13 18:31:36;;;;;;;21.90;15.30;;;;;;;19.23;44.37;99608.17;104025;1289;545544;-82